Time;durP1;ratioP1;P1;durP2;ratioP2;P2;SDS_P1;SDS_P2;PMS_P1;PMS_P2;Temp;Humidity;BMP_temperature;BMP_pressure;BME280_temperature;BME280_humidity;BME280_pressure;Samples;Min_cycle;Max_cycle;Signal;HPM_P1;HPM_P2
2022/03/22 00:00:25;;;;;;;;;14.00;12.50;;;;;17.50;43.88;103118.97;4932061;29;10252;-76
2022/03/22 00:02:50;;;;;;;;;13.75;10.25;;;;;17.50;43.72;103118.06;4932457;29;8902;-76
2022/03/22 00:05:16;;;;;;;;;10.50;10.50;;;;;17.48;44.05;103111.81;4932438;29;8966;-78
2022/03/22 00:07:42;;;;;;;;;13.00;13.00;;;;;17.47;43.94;103112.69;4932905;29;8789;-77
2022/03/22 00:10:08;;;;;;;;;10.25;9.00;;;;;17.48;44.05;103104.81;4932230;29;8865;-76
2022/03/22 00:12:35;;;;;;;;;14.50;14.50;;;;;17.44;43.71;103109.94;4928552;29;10120;-76
2022/03/22 00:15:01;;;;;;;;;13.00;13.00;;;;;17.44;44.06;103110.84;4931834;29;10298;-75
2022/03/22 00:17:27;;;;;;;;;12.00;10.50;;;;;17.48;43.69;103101.25;4932376;29;10255;-77
2022/03/22 00:19:52;;;;;;;;;14.75;14.50;;;;;17.46;43.95;103113.53;4932288;29;10171;-77
2022/03/22 00:22:18;;;;;;;;;10.25;10.25;;;;;17.45;43.94;103103.81;4931918;29;8797;-76
2022/03/22 00:24:43;;;;;;;;;17.50;15.50;;;;;17.46;43.86;103109.16;4932038;29;9558;-77
2022/03/22 00:27:09;;;;;;;;;12.75;12.75;;;;;17.44;43.75;103105.56;4931738;29;8913;-76
2022/03/22 00:29:34;;;;;;;;;15.00;15.00;;;;;17.43;43.94;103108.19;4931864;29;8806;-76
2022/03/22 00:31:59;;;;;;;;;11.50;11.50;;;;;17.41;43.82;103102.84;4934998;29;8900;-77
2022/03/22 00:34:25;;;;;;;;;13.25;11.25;;;;;17.41;44.23;103116.03;4935629;29;8904;-76
2022/03/22 00:36:50;;;;;;;;;10.50;10.50;;;;;17.40;44.12;103117.78;4934933;29;8798;-77
2022/03/22 00:39:16;;;;;;;;;13.00;11.50;;;;;17.45;44.22;103119.66;4935154;29;8820;-77
2022/03/22 00:41:42;;;;;;;;;14.00;14.00;;;;;17.45;44.14;103119.66;4935439;29;8917;-77
2022/03/22 00:44:08;;;;;;;;;13.25;13.25;;;;;17.44;44.14;103115.22;4935189;29;10444;-77
2022/03/22 00:46:34;;;;;;;;;11.50;11.50;;;;;17.40;44.03;103117.78;4935342;29;8841;-76
2022/03/22 00:49:02;;;;;;;;;13.25;12.25;;;;;17.43;44.26;103118.75;4934592;29;10250;-76
2022/03/22 00:51:28;;;;;;;;;14.25;13.00;;;;;17.37;44.18;103117.69;4934950;29;8801;-77
2022/03/22 00:53:54;;;;;;;;;14.50;12.75;;;;;17.39;44.26;103112.47;4934902;29;10296;-77
2022/03/22 00:56:19;;;;;;;;;13.75;13.00;;;;;17.37;44.05;103114.16;4934675;29;8811;-77
2022/03/22 00:58:44;;;;;;;;;21.00;17.00;;;;;17.37;44.08;103117.69;4935006;29;8810;-77
2022/03/22 01:01:09;;;;;;;;;13.00;12.50;;;;;17.40;44.32;103116.88;4934763;29;8805;-76
2022/03/22 01:03:35;;;;;;;;;13.00;13.00;;;;;17.36;44.07;103113.25;4934923;29;8840;-76
2022/03/22 01:06:01;;;;;;;;;16.00;13.50;;;;;17.37;44.44;103114.16;4934228;29;8829;-76
2022/03/22 01:08:29;;;;;;;;;12.50;12.50;;;;;17.37;44.32;103116.78;4935089;29;8860;-77
2022/03/22 01:10:54;;;;;;;;;14.00;13.50;;;;;17.36;44.39;103117.63;4934322;29;11131;-77
2022/03/22 01:13:21;;;;;;;;;14.00;14.00;;;;;17.37;44.17;103115.06;4931109;29;10303;-77
2022/03/22 01:15:49;;;;;;;;;15.25;15.00;;;;;17.31;44.44;103114.88;4935394;29;9548;-77
2022/03/22 01:18:14;;;;;;;;;19.75;18.75;;;;;17.39;44.32;103110.72;4934025;29;10412;-77
2022/03/22 01:20:42;;;;;;;;;15.75;14.75;;;;;17.34;44.22;103112.31;4934543;29;11356;-77
2022/03/22 01:23:11;;;;;;;;;13.00;12.75;;;;;17.35;44.48;103108.84;4934765;29;8936;-77
2022/03/22 01:25:39;;;;;;;;;16.25;14.25;;;;;17.34;44.54;103111.44;4934301;29;10218;-76
2022/03/22 01:28:07;;;;;;;;;23.00;20.00;;;;;17.33;44.30;103113.16;4934231;29;10471;-76
2022/03/22 01:30:33;;;;;;;;;16.50;15.50;;;;;17.30;44.44;103105.16;4934684;29;10411;-76
2022/03/22 01:32:58;;;;;;;;;15.25;14.25;;;;;17.34;44.23;103114.06;4933644;29;10367;-77
2022/03/22 01:35:25;;;;;;;;;16.00;14.75;;;;;17.33;44.79;103112.28;4934403;29;8798;-76
2022/03/22 01:37:52;;;;;;;;;16.25;16.00;;;;;17.30;44.49;103113.09;4934683;29;8798;-77
2022/03/22 01:40:19;;;;;;;;;19.50;15.75;;;;;17.31;44.35;103109.59;4933320;29;10395;-77
2022/03/22 01:42:45;;;;;;;;;15.75;15.00;;;;;17.32;44.51;103103.44;4934233;29;10504;-77
2022/03/22 01:45:10;;;;;;;;;16.50;14.25;;;;;17.39;44.65;103102.81;4933400;29;10361;-77
2022/03/22 01:47:38;;;;;;;;;16.25;14.75;;;;;17.30;44.36;103098.97;4934163;29;9549;-77
2022/03/22 01:50:09;;;;;;;;;17.25;15.25;;;;;17.32;44.71;103094.66;4934243;29;8802;-77
2022/03/22 01:52:36;;;;;;;;;19.25;17.25;;;;;17.32;44.78;103092.88;4933880;29;10221;-78
2022/03/22 01:55:03;;;;;;;;;20.00;17.75;;;;;17.31;44.59;103092.84;4934111;29;10420;-77
2022/03/22 01:57:30;;;;;;;;;17.25;15.75;;;;;17.28;44.57;103098.06;4934124;29;10570;-76
2022/03/22 01:59:56;;;;;;;;;15.75;14.25;;;;;17.30;44.57;103088.41;4933045;29;10350;-77
2022/03/22 02:07:56;;;;;;;;;19.75;14.75;;;;;17.25;44.77;103084.75;4932851;29;11009;-76
2022/03/22 02:10:22;;;;;;;;;16.50;16.00;;;;;17.26;44.75;103086.53;4933851;29;10518;-76
2022/03/22 02:12:47;;;;;;;;;19.50;18.00;;;;;17.29;44.73;103084.88;4929746;29;10325;-76
2022/03/22 02:15:13;;;;;;;;;17.50;15.25;;;;;17.29;44.67;103090.16;4932910;29;8801;-76
2022/03/22 02:17:39;;;;;;;;;19.50;18.50;;;;;17.24;44.91;103077.69;4933863;29;8809;-77
2022/03/22 02:20:05;;;;;;;;;20.75;18.25;;;;;17.27;44.87;103080.41;4933565;29;8847;-76
2022/03/22 02:22:41;;;;;;;;;14.75;14.75;;;;;17.25;44.64;103082.09;4933032;29;10473;-77
2022/03/22 02:25:15;;;;;;;;;16.75;15.00;;;;;17.23;44.84;103081.16;4933202;29;8861;-76
2022/03/22 02:27:41;;;;;;;;;16.50;16.00;;;;;17.27;44.87;103077.78;4933630;29;10996;-76
2022/03/22 02:30:10;;;;;;;;;18.00;17.25;;;;;17.22;44.82;103075.00;4933275;29;10155;-77
2022/03/22 02:32:35;;;;;;;;;15.00;15.00;;;;;17.23;44.78;103075.88;4933462;29;11176;-76
2022/03/22 02:35:00;;;;;;;;;21.00;16.00;;;;;17.20;44.91;103076.72;4932760;29;10087;-76
2022/03/22 02:37:25;;;;;;;;;15.00;15.00;;;;;17.21;44.82;103072.28;4933729;29;8802;-76
2022/03/22 02:39:51;;;;;;;;;22.25;18.25;;;;;17.22;45.11;103067.06;4933426;29;8826;-77
2022/03/22 02:42:16;;;;;;;;;17.25;16.75;;;;;17.24;45.11;103075.94;4932690;29;8817;-76
2022/03/22 02:44:41;;;;;;;;;20.25;18.50;;;;;17.21;44.48;103073.19;4933306;29;8817;-77
2022/03/22 02:47:06;;;;;;;;;24.25;20.50;;;;;17.22;44.97;103074.09;4933003;29;8816;-77
2022/03/22 02:49:34;;;;;;;;;18.50;16.75;;;;;17.22;45.02;103072.34;4933094;29;8809;-77
2022/03/22 02:51:59;;;;;;;;;15.50;15.50;;;;;17.20;44.75;103076.72;4932901;29;8832;-76
2022/03/22 02:54:25;;;;;;;;;17.00;16.00;;;;;17.22;44.95;103071.44;4932724;29;10182;-76
2022/03/22 02:56:50;;;;;;;;;17.75;16.00;;;;;17.23;44.70;103083.81;4933093;29;8816;-76
2022/03/22 02:59:15;;;;;;;;;20.25;18.75;;;;;17.22;44.95;103080.28;4933405;29;8833;-77
2022/03/22 03:01:41;;;;;;;;;18.50;16.75;;;;;17.22;44.91;103082.91;4934214;29;8790;-76
2022/03/22 03:04:06;;;;;;;;;17.00;16.25;;;;;17.19;44.97;103076.66;4932550;29;8817;-77
2022/03/22 03:06:32;;;;;;;;;16.00;15.25;;;;;17.18;44.96;103080.13;4932876;29;8995;-76
2022/03/22 03:09:00;;;;;;;;;20.00;19.00;;;;;17.18;44.98;103075.75;4932517;29;8864;-77
2022/03/22 03:11:26;;;;;;;;;21.25;19.75;;;;;17.18;45.05;103078.38;4932591;29;8790;-77
2022/03/22 03:16:36;;;;;;;;;17.00;16.75;;;;;17.19;45.28;103084.56;4932577;29;8805;-78
2022/03/22 03:19:01;;;;;;;;;19.75;15.50;;;;;17.20;45.27;103089.00;4932312;29;10594;-76
2022/03/22 03:21:26;;;;;;;;;22.25;18.75;;;;;17.20;45.05;103087.25;4932715;29;8814;-76
2022/03/22 03:23:52;;;;;;;;;17.25;15.75;;;;;17.19;45.05;103081.91;4932615;29;8789;-76
2022/03/22 03:26:17;;;;;;;;;17.50;17.50;;;;;17.19;45.23;103081.91;4932539;29;8837;-76
2022/03/22 03:28:42;;;;;;;;;19.50;18.75;;;;;17.23;45.29;103078.53;4932949;29;8887;-76
2022/03/22 03:31:08;;;;;;;;;19.75;16.00;;;;;17.22;45.16;103080.28;4932382;29;9527;-77
2022/03/22 03:33:33;;;;;;;;;16.00;16.00;;;;;17.23;45.22;103079.44;4932585;29;9573;-76
2022/03/22 03:35:58;;;;;;;;;22.25;19.00;;;;;17.19;45.26;103084.56;4932443;29;8790;-77
2022/03/22 03:38:24;;;;;;;;;22.25;21.00;;;;;17.16;45.02;103076.56;4932334;29;8843;-77
2022/03/22 03:43:33;;;;;;;;;20.50;20.50;;;;;17.18;45.36;103083.66;4932815;29;8770;-77
2022/03/22 03:48:42;;;;;;;;;20.25;19.00;;;;;17.14;45.15;103072.97;4932559;29;8774;-76
2022/03/22 03:51:07;;;;;;;;;19.00;15.75;;;;;17.18;45.19;103088.03;4932576;29;10359;-77
2022/03/22 03:53:33;;;;;;;;;19.25;18.25;;;;;17.17;45.07;103088.91;4932114;29;8778;-77
2022/03/22 03:55:58;;;;;;;;;20.00;16.00;;;;;17.16;45.49;103077.47;4932328;29;8912;-76
2022/03/22 03:58:23;;;;;;;;;16.00;16.00;;;;;17.12;45.02;103074.69;4932509;29;8861;-76
2022/03/22 04:00:48;;;;;;;;;23.25;20.00;;;;;17.16;45.22;103085.38;4931858;29;8806;-77
2022/03/22 04:03:14;;;;;;;;;19.25;17.50;;;;;17.15;45.54;103086.22;4932174;29;9037;-77
2022/03/22 04:05:39;;;;;;;;;19.25;19.25;;;;;17.13;45.46;103085.28;4932763;29;8841;-76
2022/03/22 04:08:04;;;;;;;;;18.50;16.00;;;;;17.17;45.52;103092.44;4935899;29;9637;-76
2022/03/22 04:10:30;;;;;;;;;18.50;18.00;;;;;17.15;45.14;103088.84;4936179;29;8790;-77
2022/03/22 04:12:55;;;;;;;;;19.00;17.25;;;;;17.11;45.34;103089.59;4931551;29;8830;-76
2022/03/22 04:15:21;;;;;;;;;24.25;21.00;;;;;17.12;45.36;103083.50;4935819;29;8896;-77
2022/03/22 04:17:48;;;;;;;;;16.00;16.00;;;;;17.14;45.22;103086.16;4936023;29;8805;-77
2022/03/22 04:20:13;;;;;;;;;19.75;18.50;;;;;17.12;45.38;103088.78;4935319;29;8813;-76
2022/03/22 04:22:38;;;;;;;;;25.75;24.75;;;;;17.13;45.71;103087.94;4935614;29;10416;-77
2022/03/22 04:25:05;;;;;;;;;19.00;18.50;;;;;17.19;45.68;103092.47;4935726;29;8845;-77
2022/03/22 04:32:58;;;;;;;;;15.75;15.25;;;;;17.10;45.51;103090.44;4935643;29;10609;-77
2022/03/22 04:35:27;;;;;;;;;25.50;24.00;;;;;17.13;45.57;103089.66;4935123;29;11251;-77
2022/03/22 04:37:53;;;;;;;;;19.00;18.75;;;;;17.09;45.24;103093.97;4935583;29;8829;-77
2022/03/22 04:40:22;;;;;;;;;20.00;19.00;;;;;17.09;45.37;103093.06;4935498;29;10589;-77
2022/03/22 04:42:49;;;;;;;;;17.00;17.00;;;;;17.12;45.37;103093.16;4934972;29;10591;-76
2022/03/22 04:45:15;;;;;;;;;23.75;22.75;;;;;17.13;45.33;103092.31;4935140;29;10422;-76
2022/03/22 04:47:44;;;;;;;;;20.25;19.50;;;;;17.06;45.35;103087.69;4935752;29;10426;-75
2022/03/22 04:50:09;;;;;;;;;19.75;18.25;;;;;17.05;45.61;103101.72;4934376;29;9541;-76
2022/03/22 04:58:03;;;;;;;;;20.50;19.50;;;;;17.12;45.88;103101.97;4935030;29;10339;-76
2022/03/22 05:00:28;;;;;;;;;21.25;21.25;;;;;17.07;45.94;103103.56;4935363;29;10555;-77
2022/03/22 05:02:54;;;;;;;;;22.25;20.50;;;;;17.06;45.65;103109.69;4934577;29;8802;-77
2022/03/22 05:06:25;;;;;;;;;19.00;15.50;;;;;17.08;45.61;103107.09;4934747;29;8970;-75
2022/03/22 05:08:04;;;;;;;;;19.25;19.25;;;;;17.07;45.64;103106.19;4934779;29;8806;-76
2022/03/22 05:10:34;;;;;;;;;25.00;20.00;;;;;17.05;45.66;103107.91;4934487;29;11214;-76
2022/03/22 05:13:00;;;;;;;;;19.00;16.50;;;;;17.12;45.89;103106.34;4930972;29;8874;-76
2022/03/22 05:15:25;;;;;;;;;21.25;18.75;;;;;17.06;46.23;103098.25;4935163;29;10437;-77
2022/03/22 05:17:51;;;;;;;;;20.75;19.50;;;;;17.04;45.61;103106.09;4933498;29;8963;-77
2022/03/22 05:20:16;;;;;;;;;23.75;18.50;;;;;17.07;45.77;103108.84;4935014;29;8801;-77
2022/03/22 05:22:42;;;;;;;;;21.00;20.00;;;;;17.09;45.97;103109.81;4935663;29;8805;-77
2022/03/22 05:25:10;;;;;;;;;25.50;25.00;;;;;17.07;45.94;103111.47;4934340;29;8845;-77
2022/03/22 05:27:37;;;;;;;;;21.00;21.00;;;;;17.07;46.12;103116.75;4935768;29;8821;-77
2022/03/22 05:30:04;;;;;;;;;18.00;18.00;;;;;17.10;46.04;103116.84;4934950;29;11154;-77
2022/03/22 05:32:29;;;;;;;;;26.25;21.00;;;;;17.06;45.61;103120.22;4934705;29;10342;-77
2022/03/22 05:34:54;;;;;;;;;19.00;17.50;;;;;17.01;45.93;103119.22;4934572;29;10527;-76
2022/03/22 05:37:22;;;;;;;;;20.50;19.50;;;;;17.04;45.64;103123.69;4934305;29;8896;-79
2022/03/22 05:39:47;;;;;;;;;19.75;19.75;;;;;17.01;45.96;103120.97;4934858;29;8801;-77
2022/03/22 05:42:14;;;;;;;;;22.00;22.00;;;;;17.02;45.74;103120.97;4934773;29;10669;-76
2022/03/22 05:44:40;;;;;;;;;17.50;17.50;;;;;17.04;46.00;103129.84;4934293;29;8818;-77
2022/03/22 05:47:06;;;;;;;;;18.50;17.00;;;;;17.05;45.79;103125.47;4934305;29;10494;-76
2022/03/22 05:49:33;;;;;;;;;20.75;18.00;;;;;17.04;45.88;103128.97;4935174;29;8817;-76
2022/03/22 05:51:59;;;;;;;;;23.50;18.75;;;;;17.03;45.70;103121.88;4934440;29;9611;-76
2022/03/22 05:54:24;;;;;;;;;22.25;22.00;;;;;17.03;45.94;103121.88;4935444;29;10486;-76
2022/03/22 05:56:49;;;;;;;;;17.75;17.50;;;;;17.03;45.61;103121.88;4934932;29;10517;-77
2022/03/22 05:59:15;;;;;;;;;18.50;15.75;;;;;17.00;45.79;103130.59;4933712;29;8982;-76
2022/03/22 06:01:44;;;;;;;;;19.25;17.50;;;;;16.98;45.52;103124.41;4934419;29;8920;-76
2022/03/22 06:04:09;;;;;;;;;17.00;17.00;;;;;17.01;45.59;103137.69;4934318;29;8864;-77
2022/03/22 06:06:35;;;;;;;;;22.00;20.75;;;;;16.98;45.61;103129.69;4933855;29;10358;-77
2022/03/22 06:09:00;;;;;;;;;23.00;19.00;;;;;17.03;45.58;103130.69;4934625;29;8794;-78
2022/03/22 06:11:26;;;;;;;;;18.25;17.50;;;;;16.99;45.59;103126.16;4934600;29;10340;-78
2022/03/22 06:13:51;;;;;;;;;19.00;16.75;;;;;17.01;45.91;103137.69;4929771;29;8825;-77
2022/03/22 06:16:16;;;;;;;;;25.25;20.00;;;;;17.00;45.81;103141.16;4934142;29;8802;-76
2022/03/22 06:18:45;;;;;;;;;20.00;19.00;;;;;17.01;45.36;103139.44;4934221;29;8935;-78
2022/03/22 06:21:10;;;;;;;;;20.00;18.00;;;;;16.99;45.45;103133.19;4933528;29;8818;-77
2022/03/22 06:23:36;;;;;;;;;18.75;15.50;;;;;17.00;45.41;103138.53;4934525;29;10429;-77
2022/03/22 06:26:01;;;;;;;;;21.50;20.75;;;;;16.97;45.53;103146.34;4933930;29;8802;-77
2022/03/22 06:28:26;;;;;;;;;16.75;16.75;;;;;16.97;45.90;103146.34;4933279;29;9615;-77
2022/03/22 06:30:52;;;;;;;;;23.75;18.00;;;;;17.04;45.76;103147.44;4934053;29;8802;-76
2022/03/22 06:33:18;;;;;;;;;20.00;19.75;;;;;17.03;45.66;103150.91;4933993;29;8813;-78
2022/03/22 06:35:45;;;;;;;;;15.75;15.25;;;;;16.98;45.84;103153.44;4933417;29;11644;-77
2022/03/22 06:38:11;;;;;;;;;19.25;18.75;;;;;16.99;45.55;103156.94;4933886;29;8813;-77
2022/03/22 06:40:40;;;;;;;;;21.75;21.00;;;;;16.97;45.68;103159.53;4933392;29;10565;-77
2022/03/22 06:43:14;;;;;;;;;17.00;17.00;;;;;16.98;45.86;103157.81;4933374;29;10669;-76
2022/03/22 06:45:39;;;;;;;;;20.00;20.00;;;;;16.94;45.78;103158.56;4933975;29;10490;-76
2022/03/22 06:48:09;;;;;;;;;21.00;17.75;;;;;16.99;46.01;103159.56;4933046;29;10660;-76
2022/03/22 06:50:35;;;;;;;;;23.00;20.50;;;;;17.12;49.71;103162.69;4934687;29;8829;-85
2022/03/22 06:53:02;;;;;;;;;22.50;18.75;;;;;17.15;47.57;103168.03;4934304;29;10689;-81
2022/03/22 06:55:28;;;;;;;;;20.00;19.00;;;;;17.26;49.14;103166.63;4943376;29;11161;-83
2022/03/22 06:57:53;;;;;;;;;22.75;21.50;;;;;17.37;53.72;103165.22;4944339;29;10446;-84
2022/03/22 07:00:20;;;;;;;;;19.00;18.25;;;;;17.47;52.53;103169.03;4933725;29;8840;-82
2022/03/22 07:02:47;;;;;;;;;22.25;19.50;;;;;17.61;58.64;103166.84;4932761;29;8833;-83
2022/03/22 07:05:13;;;;;;;;;24.50;21.25;;;;;17.59;54.08;103171.19;4933249;29;10776;-79
2022/03/22 07:07:39;;;;;;;;;18.00;17.75;;;;;17.69;55.90;103173.28;4933636;29;10618;-77
2022/03/22 07:10:06;;;;;;;;;22.00;19.75;;;;;17.74;54.56;103176.91;4932099;29;8798;-80
2022/03/22 07:12:32;;;;;;;;;19.25;18.50;;;;;17.66;60.56;103181.97;4929306;29;10512;-78
2022/03/22 07:14:57;;;;;;;;;22.00;21.00;;;;;17.88;62.72;103183.53;4932576;29;11132;-76
2022/03/22 07:17:23;;;;;;;;;25.00;23.00;;;;;17.87;59.40;103179.09;4932133;29;8782;-75
2022/03/22 07:19:48;;;;;;;;;25.50;24.50;;;;;17.74;60.07;103180.47;4933101;29;8817;-79
2022/03/22 07:22:13;;;;;;;;;26.00;23.25;;;;;17.63;59.37;103175.72;4932638;29;8873;-78
2022/03/22 07:24:39;;;;;;;;;25.75;23.00;;;;;17.67;55.05;103178.50;4925050;29;8895;-78
2022/03/22 07:27:05;;;;;;;;;28.75;26.75;;;;;17.66;54.57;103183.72;4909217;29;8817;-77
2022/03/22 07:29:31;;;;;;;;;28.25;26.50;;;;;17.62;54.95;103185.38;4913533;29;9663;-78
2022/03/22 07:31:57;;;;;;;;;25.75;22.50;;;;;17.56;54.29;103179.88;4913118;29;8820;-79
2022/03/22 07:34:23;;;;;;;;;29.75;26.25;;;;;17.61;52.98;103182.72;4914564;29;10521;-79
2022/03/22 07:36:52;;;;;;;;;35.00;31.25;;;;;17.62;51.96;103184.50;4912975;29;10776;-78
2022/03/22 07:39:19;;;;;;;;;33.50;29.50;;;;;17.61;50.90;103186.25;4913777;29;8808;-78
2022/03/22 07:41:45;;;;;;;;;33.00;31.00;;;;;17.61;50.43;103183.59;4913460;29;11323;-78
2022/03/22 07:44:13;;;;;;;;;34.75;32.50;;;;;17.62;50.49;103188.00;4914221;29;10815;-78
2022/03/22 07:46:43;;;;;;;;;38.50;32.50;;;;;17.62;50.27;103189.78;4914180;29;8867;-79
2022/03/22 07:54:37;;;;;;;;;40.00;37.25;;;;;17.65;49.42;103184.59;4911096;29;11068;-78
2022/03/22 07:57:03;;;;;;;;;31.00;30.25;;;;;17.68;48.91;103193.50;4914067;29;11385;-79
2022/03/22 07:59:28;;;;;;;;;42.50;37.50;;;;;17.68;48.49;103196.16;4913572;29;8829;-78
2022/03/22 08:01:54;;;;;;;;;42.50;37.75;;;;;17.67;48.21;103191.69;4913750;29;8788;-79
2022/03/22 08:04:20;;;;;;;;;35.75;33.50;;;;;17.69;48.37;103197.03;4911637;29;8828;-78
2022/03/22 08:06:45;;;;;;;;;38.25;36.25;;;;;17.71;48.18;103201.50;4913275;29;8872;-79
2022/03/22 08:09:11;;;;;;;;;32.50;30.50;;;;;17.74;48.62;103205.97;4913392;29;9430;-79
2022/03/22 08:11:39;;;;;;;;;34.25;32.25;;;;;17.76;48.37;103205.19;4902962;29;8815;-79
2022/03/22 08:14:04;;;;;;;;;39.50;35.50;;;;;17.77;47.94;103204.31;4915322;29;8812;-77
2022/03/22 08:16:30;;;;;;;;;32.75;31.50;;;;;17.78;48.02;103206.13;4912667;29;11285;-78
2022/03/22 08:18:55;;;;;;;;;43.25;38.50;;;;;17.83;47.38;103206.28;4912906;29;9576;-77
2022/03/22 08:21:21;;;;;;;;;41.50;37.25;;;;;17.85;47.71;103207.19;4913199;29;8927;-78
2022/03/22 08:23:47;;;;;;;;;43.00;37.25;;;;;17.85;47.41;103207.19;4913516;29;8813;-79
2022/03/22 08:26:13;;;;;;;;;38.00;33.25;;;;;17.88;47.10;103207.31;4911424;29;8875;-77
2022/03/22 08:28:39;;;;;;;;;36.00;35.75;;;;;17.91;46.91;103210.03;4912955;29;11616;-79
2022/03/22 08:31:04;;;;;;;;;44.25;39.00;;;;;17.92;47.05;103217.09;4912939;29;11859;-75
2022/03/22 08:33:30;;;;;;;;;46.00;39.25;;;;;17.94;47.10;103225.97;4913273;29;8804;-74
2022/03/22 08:35:58;;;;;;;;;29.75;26.25;;;;;17.95;46.55;103221.59;4910804;29;8959;-76
2022/03/22 08:38:26;;;;;;;;;39.50;37.00;;;;;17.96;46.48;103216.34;4913466;29;8796;-76
2022/03/22 08:40:56;;;;;;;;;46.25;39.25;;;;;18.02;46.27;103218.28;4912634;29;11285;-76
2022/03/22 08:43:21;;;;;;;;;40.75;36.75;;;;;18.04;46.33;103219.19;4913192;29;11361;-76
2022/03/22 08:45:53;;;;;;;;;40.25;38.00;;;;;18.06;46.24;103217.50;4911029;29;11304;-76
2022/03/22 08:48:19;;;;;;;;;40.00;38.25;;;;;18.10;46.18;103219.41;4912217;29;8896;-76
2022/03/22 08:50:49;;;;;;;;;43.50;39.50;;;;;18.10;46.43;103222.03;4912720;29;11556;-76
2022/03/22 08:53:16;;;;;;;;;49.00;41.25;;;;;18.11;45.83;103232.63;4914489;29;8859;-76
2022/03/22 08:55:42;;;;;;;;;51.50;39.50;;;;;18.21;45.81;103220.59;4913795;29;11026;-76
2022/03/22 08:58:08;;;;;;;;;38.50;35.00;;;;;18.28;45.88;103222.56;4915954;29;11178;-76
2022/03/22 09:00:37;;;;;;;;;43.50;39.50;;;;;18.27;45.67;103228.69;4916166;29;8820;-76
2022/03/22 09:03:04;;;;;;;;;44.50;39.00;;;;;18.30;45.24;103227.03;4915277;29;8805;-76
2022/03/22 09:08:14;;;;;;;;;45.00;39.00;;;;;18.27;45.58;103226.94;4914854;29;11266;-75
2022/03/22 09:10:46;;;;;;;;;39.25;35.00;;;;;18.27;45.51;103231.31;4915724;29;11999;-76
2022/03/22 09:13:12;;;;;;;;;43.50;37.75;;;;;18.20;45.91;103227.63;4918487;29;8907;-76
2022/03/22 09:15:39;;;;;;;;;41.25;36.00;;;;;18.18;45.80;103229.31;4913481;29;11357;-76
2022/03/22 09:18:12;;;;;;;;;42.25;37.25;;;;;18.24;45.72;103223.31;4915135;29;11314;-78
2022/03/22 09:20:38;;;;;;;;;41.75;38.75;;;;;18.23;46.23;103225.06;4916356;29;11211;-79
2022/03/22 09:23:08;;;;;;;;;41.00;37.50;;;;;18.26;46.42;103221.59;4915107;29;10921;-77
2022/03/22 09:25:34;;;;;;;;;39.00;35.75;;;;;18.31;45.88;103223.53;4913761;29;9458;-78
2022/03/22 09:28:00;;;;;;;;;37.00;34.25;;;;;18.27;45.98;103223.41;4915403;29;11207;-77
2022/03/22 09:30:26;;;;;;;;;39.50;35.00;;;;;18.31;45.88;103222.63;4914712;29;11590;-79
2022/03/22 09:32:52;;;;;;;;;34.25;29.25;;;;;18.28;46.13;103225.19;4915845;29;8808;-77
2022/03/22 09:35:19;;;;;;;;;25.00;24.25;;;;;18.30;46.07;103221.72;4913825;29;10962;-76
2022/03/22 09:37:47;;;;;;;;;35.25;34.75;;;;;18.30;46.07;103221.72;4915404;29;8809;-78
2022/03/22 09:40:15;;;;;;;;;36.25;34.50;;;;;18.31;45.92;103223.53;4915534;29;11560;-78
2022/03/22 09:42:45;;;;;;;;;33.50;28.25;;;;;18.35;46.09;103227.16;4904628;29;10971;-78
2022/03/22 09:45:14;;;;;;;;;33.00;29.00;;;;;18.34;46.11;103223.59;4903641;29;10885;-77
2022/03/22 09:47:42;;;;;;;;;32.50;30.50;;;;;18.33;46.33;103220.94;4916058;29;10861;-78
2022/03/22 09:50:09;;;;;;;;;31.00;30.50;;;;;18.34;46.11;103228.00;4915563;29;11128;-77
2022/03/22 09:52:35;;;;;;;;;33.25;29.25;;;;;18.31;46.22;103220.88;4914268;29;10798;-77
2022/03/22 09:55:01;;;;;;;;;33.75;32.75;;;;;18.33;46.09;103220.94;4913818;29;10872;-79
2022/03/22 09:57:28;;;;;;;;;31.00;31.00;;;;;18.35;46.06;103217.47;4915263;29;10853;-77
2022/03/22 09:59:53;;;;;;;;;33.75;29.25;;;;;18.44;45.92;103213.28;4914434;29;8823;-77
2022/03/22 10:02:27;;;;;;;;;33.00;31.00;;;;;18.42;45.97;103218.53;4914733;29;10697;-77
2022/03/22 10:04:52;;;;;;;;;31.25;29.25;;;;;18.43;46.12;103211.50;4911447;29;8876;-77
2022/03/22 10:07:20;;;;;;;;;19.25;17.75;;;;;18.42;46.16;103209.69;4914083;29;10753;-78
2022/03/22 10:10:05;;;;;;;;;34.75;33.50;;;;;18.52;45.92;103212.66;4914645;29;9536;-78
2022/03/22 10:12:32;;;;;;;;;29.00;28.75;;;;;18.49;46.30;103211.66;4915927;29;10835;-76
2022/03/22 10:15:15;;;;;;;;;28.75;27.75;;;;;18.51;46.38;103213.53;4924572;29;10899;-75
2022/03/22 10:17:41;;;;;;;;;30.25;27.00;;;;;18.70;46.09;103206.97;4915301;29;10511;-76
2022/03/22 10:20:08;;;;;;;;;39.00;34.50;;;;;18.73;45.98;103205.31;4914309;29;10685;-76
2022/03/22 10:22:36;;;;;;;;;33.50;32.50;;;;;18.64;46.34;103205.03;4915074;29;11644;-76
2022/03/22 10:25:04;;;;;;;;;28.75;26.75;;;;;18.56;46.36;103201.31;4913047;29;11064;-77
2022/03/22 10:27:37;;;;;;;;;31.50;28.50;;;;;18.67;46.20;103205.13;4914168;29;11534;-76
2022/03/22 10:30:08;;;;;;;;;22.50;20.50;;;;;18.70;46.67;103206.97;4914468;29;10844;-76
2022/03/22 10:32:36;;;;;;;;;33.75;32.75;;;;;18.76;46.18;103205.38;4914585;29;10932;-77
2022/03/22 10:35:10;;;;;;;;;27.75;26.25;;;;;18.62;46.48;103206.78;4912896;29;10939;-77
2022/03/22 10:37:37;;;;;;;;;37.50;29.25;;;;;18.65;46.47;103193.63;4914763;29;10701;-77
2022/03/22 10:40:03;;;;;;;;;36.75;29.50;;;;;18.64;46.51;103202.41;4912955;29;10918;-78
2022/03/22 10:42:29;;;;;;;;;32.25;30.75;;;;;18.70;47.03;103204.31;4914318;29;10795;-78
2022/03/22 10:44:58;;;;;;;;;32.00;29.75;;;;;18.73;46.41;103199.09;4914257;29;8828;-78
2022/03/22 10:47:26;;;;;;;;;30.25;28.75;;;;;18.69;46.74;103205.19;4913773;29;10939;-78
2022/03/22 10:50:05;;;;;;;;;27.75;27.50;;;;;18.91;56.15;103196.03;4916514;29;11017;-76
2022/03/22 10:52:37;;;;;;;;;28.50;26.00;;;;;18.62;52.14;103203.22;4921009;29;10754;-80
2022/03/22 10:55:03;;;;;;;;;29.00;25.25;;;;;18.51;50.55;103205.59;4914485;29;10671;-80
2022/03/22 10:57:32;;;;;;;;;26.00;25.00;;;;;18.47;49.63;103197.50;4914825;29;10770;-80
2022/03/22 11:00:08;;;;;;;;;20.75;18.75;;;;;18.48;49.30;103208.13;4914244;29;8827;-80
2022/03/22 11:02:37;;;;;;;;;29.25;26.50;;;;;18.45;49.49;103209.78;4913763;29;10672;-80
2022/03/22 11:05:04;;;;;;;;;21.50;21.50;;;;;18.43;48.92;103209.75;4913985;29;10728;-80
2022/03/22 11:07:39;;;;;;;;;22.75;22.75;;;;;18.41;50.02;103200.00;4914274;29;10576;-80
2022/03/22 11:10:09;;;;;;;;;23.25;22.25;;;;;18.42;50.22;103199.13;4913583;29;10527;-80
2022/03/22 11:12:34;;;;;;;;;33.75;29.50;;;;;18.40;49.90;103196.44;4917563;29;10641;-80
2022/03/22 11:15:02;;;;;;;;;28.75;26.50;;;;;18.40;50.86;103199.09;4913153;29;10621;-79
2022/03/22 11:17:30;;;;;;;;;26.75;25.25;;;;;18.41;51.06;103194.69;4913910;29;8827;-79
2022/03/22 11:19:58;;;;;;;;;28.75;26.25;;;;;18.39;51.48;103199.03;4913802;29;10538;-79
2022/03/22 11:22:24;;;;;;;;;23.00;20.50;;;;;18.40;51.26;103199.09;4912821;29;10613;-79
2022/03/22 11:24:49;;;;;;;;;28.25;25.75;;;;;18.41;51.67;103200.00;4914002;29;10450;-79
2022/03/22 11:27:14;;;;;;;;;28.00;24.50;;;;;18.41;51.76;103194.69;4914153;29;8872;-79
2022/03/22 11:29:41;;;;;;;;;25.50;23.00;;;;;18.39;52.01;103192.00;4913734;29;8800;-79
2022/03/22 11:34:54;;;;;;;;;26.25;23.50;;;;;18.43;52.15;103192.97;4914117;29;10541;-79
2022/03/22 11:37:34;;;;;;;;;28.50;26.50;;;;;18.43;52.22;103193.88;4914128;29;10592;-77
2022/03/22 11:42:53;;;;;;;;;25.25;23.25;;;;;18.43;52.77;103190.34;4913925;29;10469;-78
2022/03/22 11:45:19;;;;;;;;;24.75;21.00;;;;;18.42;53.09;103192.06;4913497;29;10303;-78
2022/03/22 11:47:49;;;;;;;;;23.50;22.75;;;;;18.42;53.24;103189.44;4913893;29;10454;-77
2022/03/22 11:50:20;;;;;;;;;21.00;20.25;;;;;18.42;53.44;103188.53;4913507;29;8812;-77